createdAt,value
2018-08-25T00:00:52.690Z,91942.30
2018-08-25T00:03:28.368Z,91943.34
2018-08-25T00:06:03.971Z,91938.91
2018-08-25T00:08:39.581Z,91942.50
2018-08-25T00:11:15.292Z,91942.20
2018-08-25T00:13:50.975Z,91938.39
2018-08-25T00:16:26.951Z,91942.11
2018-08-25T00:19:03.345Z,91948.39
2018-08-25T00:21:39.081Z,91945.50
2018-08-25T00:24:15.749Z,91941.09
2018-08-25T00:26:55.880Z,91937.28
2018-08-25T00:29:31.964Z,91938.05
2018-08-25T00:32:07.820Z,91935.94
2018-08-25T00:34:44.414Z,91937.16
2018-08-25T00:37:20.558Z,91940.56
2018-08-25T00:39:56.567Z,91940.27
2018-08-25T00:42:32.443Z,91947.14
2018-08-25T00:45:08.214Z,91945.80
2018-08-25T00:47:44.712Z,91952.67
2018-08-25T00:50:20.874Z,91950.45
2018-08-25T00:52:56.673Z,91945.75
2018-08-25T00:55:32.737Z,91947.63
2018-08-25T00:58:08.670Z,91947.27
2018-08-25T01:00:45.039Z,91948.28
2018-08-25T01:03:21.078Z,91945.99
2018-08-25T01:05:57.052Z,91947.05
2018-08-25T01:08:32.932Z,91944.40
2018-08-25T01:11:08.649Z,91943.38
2018-08-25T01:13:44.941Z,91932.67
2018-08-25T01:16:20.659Z,91943.00
2018-08-25T01:18:56.514Z,91941.83
2018-08-25T01:21:32.292Z,91939.69
2018-08-25T01:24:08.105Z,91942.88
2018-08-25T01:26:43.881Z,91941.00
2018-08-25T01:29:19.672Z,91941.34
2018-08-25T01:31:55.459Z,91939.66
2018-08-25T01:34:31.894Z,91944.30
2018-08-25T01:37:07.637Z,91941.00
2018-08-25T01:39:43.570Z,91941.41
2018-08-25T01:42:19.389Z,91946.45
2018-08-25T01:44:55.870Z,91941.92
2018-08-25T01:47:31.616Z,91942.00
2018-08-25T01:50:07.698Z,91937.53
2018-08-25T01:52:43.477Z,91941.33
2018-08-25T01:55:19.270Z,91944.19
2018-08-25T01:57:54.903Z,91937.32
2018-08-25T02:00:30.682Z,91935.35
2018-08-25T02:03:06.635Z,91930.39
2018-08-25T02:05:42.467Z,91931.36
2018-08-25T02:08:18.235Z,91930.64
2018-08-25T02:10:54.107Z,91936.42
2018-08-25T02:13:29.903Z,91940.61
2018-08-25T02:16:06.488Z,91938.80
2018-08-25T02:18:42.357Z,91944.13
2018-08-25T02:21:18.333Z,91945.28
2018-08-25T02:23:54.173Z,91949.59
2018-08-25T02:26:32.552Z,91951.44
2018-08-25T02:29:08.598Z,91949.88
2018-08-25T02:31:44.477Z,91948.92
2018-08-25T02:34:20.352Z,91949.59
2018-08-25T02:36:58.434Z,91949.14
2018-08-25T02:39:34.430Z,91954.61
2018-08-25T02:42:10.329Z,91950.37
2018-08-25T02:44:46.148Z,91944.43
2018-08-25T02:47:23.770Z,91949.45
2018-08-25T02:49:59.701Z,91946.81
2018-08-25T02:52:35.565Z,91950.22
2018-08-25T02:55:11.434Z,91949.22
2018-08-25T02:57:51.086Z,91946.09
2018-08-25T03:00:26.717Z,91941.48
2018-08-25T03:03:03.658Z,91946.77
2018-08-25T03:05:39.408Z,91948.77
2018-08-25T03:08:15.329Z,91943.09
2018-08-25T03:10:51.039Z,91943.69
2018-08-25T03:13:26.706Z,91948.36
2018-08-25T03:16:02.552Z,91953.58
2018-08-25T03:18:38.426Z,91941.88
2018-08-25T03:21:14.249Z,91949.86
2018-08-25T03:23:50.208Z,91950.18
2018-08-25T03:26:25.938Z,91958.42
2018-08-25T03:29:01.713Z,91950.75
2018-08-25T03:31:37.622Z,91958.14
2018-08-25T03:34:13.383Z,91954.97
2018-08-25T03:36:49.128Z,91953.24
2018-08-25T03:39:24.949Z,91948.06
2018-08-25T03:42:00.687Z,91950.98
2018-08-25T03:44:36.461Z,91956.55
2018-08-25T03:47:12.404Z,91945.94
2018-08-25T03:49:48.399Z,91947.22
2018-08-25T03:52:24.140Z,91946.70
2018-08-25T03:55:00.042Z,91949.22
2018-08-25T03:57:35.901Z,91948.90
2018-08-25T04:00:11.708Z,91955.70
2018-08-25T04:02:47.458Z,91953.06
2018-08-25T04:05:23.354Z,91954.47
2018-08-25T04:07:59.169Z,91955.73
2018-08-25T04:10:35.119Z,91956.91
2018-08-25T04:13:10.823Z,91956.40
2018-08-25T04:15:46.491Z,91957.25
2018-08-25T04:18:22.243Z,91955.77
2018-08-25T04:20:58.032Z,91953.45
2018-08-25T04:23:33.923Z,91950.76
2018-08-25T04:26:09.875Z,91957.19
2018-08-25T04:28:45.772Z,91959.05
2018-08-25T04:31:21.401Z,91955.83
2018-08-25T04:33:57.174Z,91956.64
2018-08-25T04:36:33.092Z,91953.47
2018-08-25T04:39:10.686Z,91951.27
2018-08-25T04:41:46.483Z,91956.16
2018-08-25T04:44:22.199Z,91950.75
2018-08-25T04:46:58.026Z,91958.47
2018-08-25T04:49:33.765Z,91956.03
2018-08-25T04:52:09.789Z,91961.99
2018-08-25T04:54:45.393Z,91951.99
2018-08-25T04:57:21.513Z,91956.90
2018-08-25T04:59:57.296Z,91952.41
2018-08-25T05:02:33.143Z,91958.00
2018-08-25T05:05:09.007Z,91955.00
2018-08-25T05:07:44.908Z,91958.53
2018-08-25T05:10:20.845Z,91954.69
2018-08-25T05:12:56.732Z,91950.26
2018-08-25T05:15:32.562Z,91955.80
2018-08-25T05:18:08.458Z,91958.67
2018-08-25T05:20:44.185Z,91956.84
2018-08-25T05:23:20.071Z,91956.94
2018-08-25T05:25:55.847Z,91957.78
2018-08-25T05:28:31.772Z,91959.37
2018-08-25T05:31:07.616Z,91959.66
2018-08-25T05:33:43.419Z,91963.99
2018-08-25T05:36:19.185Z,91961.17
2018-08-25T05:38:55.465Z,91959.97
2018-08-25T05:41:31.331Z,91960.90
2018-08-25T05:44:07.222Z,91961.80
2018-08-25T05:46:44.186Z,91961.83
2018-08-25T05:49:21.264Z,91963.69
2018-08-25T05:51:57.263Z,91965.22
2018-08-25T05:54:32.995Z,91961.39
2018-08-25T05:57:10.448Z,91952.92
2018-08-25T05:59:46.524Z,91961.34
2018-08-25T06:02:22.279Z,91964.20
2018-08-25T06:04:58.542Z,91962.14
2018-08-25T06:07:34.379Z,91965.56
2018-08-25T06:10:10.620Z,91964.83
2018-08-25T06:12:46.494Z,91965.00
2018-08-25T06:15:22.330Z,91961.51
2018-08-25T06:17:58.184Z,91959.52
2018-08-25T06:20:33.938Z,91959.75
2018-08-25T06:23:09.797Z,91960.88
2018-08-25T06:25:45.925Z,91958.60
2018-08-25T06:28:21.774Z,91955.03
2018-08-25T06:30:58.161Z,91951.84
2018-08-25T06:33:34.299Z,91955.61
2018-08-25T06:36:13.708Z,91952.37
2018-08-25T06:38:49.460Z,91953.09
2018-08-25T06:41:20.291Z,91949.64
2018-08-25T06:43:51.038Z,91947.66
2018-08-25T06:46:21.903Z,91943.18
2018-08-25T06:48:52.942Z,91930.95
2018-08-25T06:51:24.041Z,91936.14
2018-08-25T06:53:54.822Z,91931.86
2018-08-25T06:56:25.634Z,91935.39
2018-08-25T06:58:59.184Z,91940.84
2018-08-25T07:01:30.152Z,91935.30
2018-08-25T07:04:00.990Z,91936.48
2018-08-25T07:06:34.312Z,91931.77
2018-08-25T07:09:09.400Z,91933.34
2018-08-25T07:11:40.469Z,91936.09
2018-08-25T07:14:11.665Z,91934.33
2018-08-25T07:16:42.553Z,91930.89
2018-08-25T07:19:13.377Z,91933.00
2018-08-25T07:21:44.191Z,91928.87
2018-08-25T07:24:19.836Z,91929.27
2018-08-25T07:26:50.662Z,91925.66
2018-08-25T07:29:21.447Z,91922.30
2018-08-25T07:31:52.347Z,91924.98
2018-08-25T07:34:23.894Z,91928.64
2018-08-25T07:36:54.910Z,91923.20
2018-08-25T07:39:25.966Z,91919.36
2018-08-25T07:41:56.823Z,91923.91
2018-08-25T07:44:27.628Z,91920.19
2018-08-25T07:46:58.491Z,91922.42
2018-08-25T07:49:29.283Z,91923.45
2018-08-25T07:52:00.302Z,91924.04
2018-08-25T07:54:31.064Z,91929.27
2018-08-25T07:57:02.688Z,91924.92
2018-08-25T07:59:33.512Z,91926.06
2018-08-25T08:02:04.917Z,91924.20
2018-08-25T08:04:35.691Z,91922.64
2018-08-25T08:07:06.567Z,91914.50
2018-08-25T08:09:37.367Z,91922.72
2018-08-25T08:12:08.267Z,91913.84
2018-08-25T08:14:39.316Z,91911.00
2018-08-25T08:17:10.294Z,91908.31
2018-08-25T08:19:41.193Z,91907.27
2018-08-25T08:22:12.021Z,91907.20
2018-08-25T08:24:42.771Z,91902.84
2018-08-25T08:27:13.600Z,91896.70
2018-08-25T08:29:44.369Z,91900.95
2018-08-25T08:32:15.209Z,91896.85
2018-08-25T08:34:45.977Z,91903.14
2018-08-25T08:37:16.782Z,91903.05
2018-08-25T08:39:47.553Z,91894.19
2018-08-25T08:42:18.390Z,91894.27
2018-08-25T08:44:50.090Z,91896.62
2018-08-25T08:47:21.906Z,91893.60
2018-08-25T08:49:53.064Z,91895.40
2018-08-25T08:52:24.537Z,91902.41
2018-08-25T08:54:55.385Z,91894.34
2018-08-25T08:57:26.279Z,91892.87
2018-08-25T08:59:57.151Z,91889.69
2018-08-25T09:02:28.134Z,91888.70
2018-08-25T09:04:59.035Z,91885.13
2018-08-25T09:07:30.218Z,91878.42
2018-08-25T09:10:01.198Z,91882.27
2018-08-25T09:12:31.986Z,91875.86
2018-08-25T09:15:02.809Z,91875.87
2018-08-25T09:17:33.798Z,91877.52
2018-08-25T09:20:04.962Z,91871.97
2018-08-25T09:22:35.780Z,91868.41
2018-08-25T09:25:07.093Z,91869.72
2018-08-25T09:27:38.068Z,91868.30
2018-08-25T09:30:09.407Z,91858.95
2018-08-25T09:32:40.458Z,91856.72
2018-08-25T09:35:11.403Z,91858.17
2018-08-25T09:37:42.428Z,91856.00
2018-08-25T09:40:13.289Z,91849.16
2018-08-25T09:42:44.150Z,91849.45
2018-08-25T09:45:15.185Z,91847.56
2018-08-25T09:47:51.795Z,91841.94
2018-08-25T09:50:22.981Z,91845.20
2018-08-25T09:52:53.848Z,91833.06
2018-08-25T09:55:24.617Z,91829.77
2018-08-25T09:57:55.419Z,91831.64
2018-08-25T10:00:26.281Z,91826.29
2018-08-25T10:02:57.292Z,91824.66
2018-08-25T10:05:28.065Z,91826.09
2018-08-25T10:07:58.873Z,91823.70
2018-08-25T10:10:29.636Z,91818.89
2018-08-25T10:13:00.446Z,91812.80
2018-08-25T10:15:31.198Z,91818.31
2018-08-25T10:18:02.069Z,91809.22
2018-08-25T10:20:32.842Z,91807.80
2018-08-25T10:23:03.748Z,91807.86
2018-08-25T10:25:35.171Z,91807.05
2018-08-25T10:28:06.100Z,91809.58
2018-08-25T10:30:36.969Z,91806.75
2018-08-25T10:33:07.868Z,91809.66
2018-08-25T10:35:38.755Z,91806.97
2018-08-25T10:38:09.810Z,91810.16
2018-08-25T10:40:40.702Z,91810.15
2018-08-25T10:43:11.559Z,91809.64
2018-08-25T10:45:42.384Z,91811.89
2018-08-25T10:48:14.388Z,91807.73
2018-08-25T10:50:45.319Z,91814.64
2018-08-25T10:53:16.358Z,91804.09
2018-08-25T10:55:47.173Z,91809.53
2018-08-25T10:58:18.070Z,91806.63
2018-08-25T11:00:49.703Z,91805.20
2018-08-25T11:03:20.952Z,91803.67
2018-08-25T11:05:51.748Z,91799.45
2018-08-25T11:08:22.963Z,91802.64
2018-08-25T11:10:53.772Z,91797.78
2018-08-25T11:13:24.630Z,91795.05
2018-08-25T11:15:55.405Z,91799.84
2018-08-25T11:18:26.261Z,91800.53
2018-08-25T11:20:57.051Z,91796.40
2018-08-25T11:23:28.060Z,91795.72
2018-08-25T11:26:00.098Z,91804.41
2018-08-25T11:28:31.757Z,91800.72
2018-08-25T11:31:03.848Z,91804.11
2018-08-25T11:33:34.859Z,91803.42
2018-08-25T11:36:05.639Z,91804.70
2018-08-25T11:38:36.465Z,91798.50
2018-08-25T11:41:07.307Z,91806.63
2018-08-25T11:43:38.168Z,91808.59
2018-08-25T11:46:08.982Z,91811.78
2018-08-25T11:48:45.536Z,91810.83
2018-08-25T11:51:16.307Z,91810.78
2018-08-25T11:53:47.135Z,91799.73
2018-08-25T11:56:17.961Z,91803.97
2018-08-25T11:58:48.808Z,91796.19
2018-08-25T12:01:19.701Z,91796.09
2018-08-25T12:03:50.957Z,91792.50
2018-08-25T12:06:21.851Z,91790.67
2018-08-25T12:08:52.737Z,91789.66
2018-08-25T12:11:23.549Z,91791.23
2018-08-25T12:13:54.415Z,91785.78
2018-08-25T12:16:25.214Z,91785.85
2018-08-25T12:18:56.243Z,91784.42
2018-08-25T12:21:27.121Z,91779.77
2018-08-25T12:23:58.057Z,91776.11
2018-08-25T12:26:29.105Z,91770.44
2018-08-25T12:28:59.970Z,91771.25
2018-08-25T12:31:30.752Z,91767.61
2018-08-25T12:34:01.685Z,91772.59
2018-08-25T12:36:32.488Z,91770.59
2018-08-25T12:39:03.565Z,91764.52
2018-08-25T12:41:34.304Z,91769.48
2018-08-25T12:44:05.169Z,91772.71
2018-08-25T12:46:35.998Z,91768.58
2018-08-25T12:49:06.913Z,91765.97
2018-08-25T12:51:37.877Z,91765.41
2018-08-25T12:54:08.891Z,91760.44
2018-08-25T12:56:39.697Z,91771.59
2018-08-25T12:59:10.567Z,91772.94
2018-08-25T13:01:41.577Z,91769.08
2018-08-25T13:04:12.784Z,91759.58
2018-08-25T13:06:43.554Z,91763.75
2018-08-25T13:09:14.471Z,91761.85
2018-08-25T13:11:45.291Z,91764.20
2018-08-25T13:14:16.125Z,91762.41
2018-08-25T13:16:46.919Z,91767.46
2018-08-25T13:19:18.008Z,91768.48
2018-08-25T13:21:48.878Z,91771.63
2018-08-25T13:24:19.928Z,91763.72
2018-08-25T13:26:50.734Z,91769.84
2018-08-25T13:29:21.621Z,91770.88
2018-08-25T13:31:52.856Z,91774.52
2018-08-25T13:34:23.793Z,91777.41
2018-08-25T13:36:54.697Z,91785.86
2018-08-25T13:39:25.694Z,91778.05
2018-08-25T13:41:56.713Z,91785.63
2018-08-25T13:44:30.696Z,91777.48
2018-08-25T13:47:01.562Z,91779.60
2018-08-25T13:49:32.535Z,91777.53
2018-08-25T13:52:03.456Z,91777.53
2018-08-25T13:54:34.264Z,91775.26
2018-08-25T13:57:05.295Z,91768.97
2018-08-25T13:59:36.622Z,91773.80
2018-08-25T14:02:08.276Z,91768.52
2018-08-25T14:04:39.437Z,91772.05
2018-08-25T14:07:11.344Z,91772.45
2018-08-25T14:09:42.458Z,91773.69
2018-08-25T14:12:13.453Z,91763.03
2018-08-25T14:14:44.440Z,91763.35
2018-08-25T14:17:15.869Z,91763.69
2018-08-25T14:19:46.914Z,91763.50
2018-08-25T14:22:18.412Z,91762.87
2018-08-25T14:26:14.189Z,91760.30
2018-08-25T14:28:45.037Z,91764.55
2018-08-25T14:31:16.942Z,91763.16
2018-08-25T14:33:47.744Z,91761.30
2018-08-25T14:36:18.956Z,91748.78
2018-08-25T14:38:50.113Z,91748.70
2018-08-25T14:41:21.181Z,91748.67
2018-08-25T14:43:52.046Z,91744.87
2018-08-25T14:46:23.283Z,91741.81
2018-08-25T14:48:54.078Z,91746.36
2018-08-25T14:51:24.886Z,91740.57
2018-08-25T14:53:55.721Z,91738.72
2018-08-25T14:56:26.569Z,91730.71
2018-08-25T14:58:57.689Z,91734.41
2018-08-25T15:01:28.817Z,91736.69
2018-08-25T15:03:59.954Z,91736.94
2018-08-25T15:06:30.793Z,91726.59
2018-08-25T15:09:06.507Z,91727.28
2018-08-25T15:11:37.442Z,91721.64
2018-08-25T15:14:08.470Z,91718.55
2018-08-25T15:16:39.312Z,91718.24
2018-08-25T15:19:10.186Z,91718.44
2018-08-25T15:21:41.011Z,91715.87
2018-08-25T15:24:11.828Z,91719.34
2018-08-25T15:26:42.806Z,91713.84
2018-08-25T15:29:14.487Z,91724.19
2018-08-25T15:31:45.428Z,91714.11
2018-08-25T15:34:16.489Z,91718.30
2018-08-25T15:36:52.474Z,91722.84
2018-08-25T15:39:23.500Z,91715.36
2018-08-25T15:41:54.359Z,91719.98
2018-08-25T15:44:25.148Z,91725.93
2018-08-25T15:46:55.964Z,91722.95
2018-08-25T15:49:27.060Z,91717.16
2018-08-25T15:51:58.105Z,91724.88
2018-08-25T15:54:29.974Z,91724.81
2018-08-25T15:57:00.824Z,91726.13
2018-08-25T15:59:31.663Z,91719.35
2018-08-25T16:02:03.929Z,91726.53
2018-08-25T16:04:34.719Z,91725.98
2018-08-25T16:07:06.382Z,91723.10
2018-08-25T16:09:37.166Z,91728.05
2018-08-25T16:12:08.093Z,91721.91
2018-08-25T16:14:40.385Z,91714.19
2018-08-25T16:17:11.214Z,91716.61
2018-08-25T16:19:42.937Z,91717.91
2018-08-25T16:22:14.434Z,91721.84
2018-08-25T16:24:45.371Z,91722.27
2018-08-25T16:27:17.005Z,91721.86
2018-08-25T16:29:47.844Z,91724.58
2018-08-25T16:32:18.677Z,91727.53
2018-08-25T16:34:49.473Z,91728.07
2018-08-25T16:37:20.393Z,91726.52
2018-08-25T16:39:51.315Z,91726.16
2018-08-25T16:42:22.161Z,91725.53
2018-08-25T16:44:52.952Z,91735.15
2018-08-25T16:47:23.851Z,91735.62
2018-08-25T16:49:54.757Z,91741.50
2018-08-25T16:52:25.769Z,91745.18
2018-08-25T16:54:56.563Z,91749.70
2018-08-25T16:57:27.443Z,91748.06
2018-08-25T16:59:58.238Z,91744.15
2018-08-25T17:02:29.437Z,91736.53
2018-08-25T17:05:01.023Z,91743.92
2018-08-25T17:07:31.953Z,91746.20
2018-08-25T17:10:02.741Z,91761.37
2018-08-25T17:12:33.582Z,91758.28
2018-08-25T17:15:04.461Z,91766.58
2018-08-25T17:17:35.317Z,91760.36
2018-08-25T17:20:06.190Z,91773.44
2018-08-25T17:22:37.031Z,91772.89
2018-08-25T17:25:07.851Z,91774.91
2018-08-25T17:27:38.841Z,91776.13
2018-08-25T17:30:14.837Z,91776.42
2018-08-25T17:32:45.921Z,91786.82
2018-08-25T17:35:16.735Z,91788.62
2018-08-25T17:37:48.111Z,91796.75
2018-08-25T17:40:18.931Z,91797.97
2018-08-25T17:42:49.770Z,91798.34
2018-08-25T17:45:20.564Z,91802.66
2018-08-25T17:47:51.404Z,91801.45
2018-08-25T17:50:22.201Z,91805.38
2018-08-25T17:52:53.053Z,91808.55
2018-08-25T17:55:23.854Z,91815.05
2018-08-25T17:57:55.137Z,91808.52
2018-08-25T18:00:25.942Z,91811.48
2018-08-25T18:02:56.821Z,91819.90
2018-08-25T18:05:27.618Z,91814.51
2018-08-25T18:07:58.495Z,91820.39
2018-08-25T18:10:29.297Z,91821.62
2018-08-25T18:13:00.145Z,91819.96
2018-08-25T18:15:31.555Z,91820.16
2018-08-25T18:18:02.442Z,91825.17
2018-08-25T18:20:33.277Z,91829.43
2018-08-25T18:23:04.118Z,91830.24
2018-08-25T18:25:35.886Z,91830.18
2018-08-25T18:28:06.725Z,91828.72
2018-08-25T18:30:37.661Z,91837.23
2018-08-25T18:33:08.744Z,91834.09
2018-08-25T18:35:39.517Z,91838.94
2018-08-25T18:38:10.368Z,91838.63
2018-08-25T18:40:41.184Z,91842.26
2018-08-25T18:43:12.028Z,91849.95
2018-08-25T18:45:42.835Z,91849.36
2018-08-25T18:48:14.006Z,91861.03
2018-08-25T18:50:45.150Z,91852.15
2018-08-25T18:53:16.061Z,91855.45
2018-08-25T18:55:47.967Z,91852.39
2018-08-25T18:58:18.998Z,91856.84
2018-08-25T19:00:50.369Z,91857.29
2018-08-25T19:03:21.525Z,91848.92
2018-08-25T19:05:55.808Z,91855.74
2018-08-25T19:08:26.696Z,91848.30
2018-08-25T19:10:57.751Z,91856.61
2018-08-25T19:13:28.600Z,91856.33
2018-08-25T19:15:59.545Z,91859.92
2018-08-25T19:18:33.598Z,91860.23
2018-08-25T19:21:04.739Z,91855.08
2018-08-25T19:23:35.757Z,91861.17
2018-08-25T19:26:06.804Z,91857.38
2018-08-25T19:28:37.648Z,91854.65
2018-08-25T19:31:08.445Z,91852.17
2018-08-25T19:33:39.346Z,91850.36
2018-08-25T19:36:10.172Z,91851.80
2018-08-25T19:38:41.051Z,91851.90
2018-08-25T19:41:12.428Z,91854.95
2018-08-25T19:43:43.446Z,91856.23
2018-08-25T19:46:14.345Z,91858.50
2018-08-25T19:48:45.308Z,91858.70
2018-08-25T19:51:16.089Z,91858.59
2018-08-25T19:53:46.939Z,91858.42
2018-08-25T19:56:18.018Z,91863.55
2018-08-25T19:58:53.803Z,91866.56
2018-08-25T20:01:29.878Z,91870.55
2018-08-25T20:04:05.800Z,91870.16
2018-08-25T20:06:41.693Z,91868.84
2018-08-25T20:09:17.670Z,91871.91
2018-08-25T20:11:53.684Z,91865.42
2018-08-25T20:14:29.835Z,91869.84
2018-08-25T20:17:05.674Z,91865.90
2018-08-25T20:19:41.478Z,91867.72
2018-08-25T20:22:17.253Z,91865.81
2018-08-25T20:24:53.140Z,91865.68
2018-08-25T20:27:28.972Z,91862.08
2018-08-25T20:30:05.474Z,91862.28
2018-08-25T20:32:41.401Z,91863.26
2018-08-25T20:35:17.341Z,91865.21
2018-08-25T20:37:53.148Z,91863.25
2018-08-25T20:40:29.503Z,91861.55
2018-08-25T20:43:05.446Z,91861.16
2018-08-25T20:45:41.307Z,91854.77
2018-08-25T20:48:17.163Z,91850.47
2018-08-25T20:50:53.106Z,91851.18
2018-08-25T20:53:28.866Z,91855.61
2018-08-25T20:56:04.844Z,91853.80
2018-08-25T20:58:40.656Z,91856.77
2018-08-25T21:01:16.547Z,91859.14
2018-08-25T21:03:53.705Z,91858.23
2018-08-25T21:07:54.702Z,91855.63
2018-08-25T21:10:31.781Z,91860.77
2018-08-25T21:13:09.519Z,91863.44
2018-08-25T21:15:46.024Z,91863.05
2018-08-25T21:18:22.012Z,91855.25
2018-08-25T21:20:58.058Z,91863.83
2018-08-25T21:23:33.950Z,91858.22
2018-08-25T21:26:09.696Z,91864.62
2018-08-25T21:28:45.520Z,91865.79
2018-08-25T21:31:21.281Z,91863.08
2018-08-25T21:33:57.104Z,91860.41
2018-08-25T21:36:33.034Z,91864.30
2018-08-25T21:39:10.578Z,91858.16
2018-08-25T21:41:47.613Z,91852.67
2018-08-25T21:44:23.367Z,91852.31
2018-08-25T21:46:59.167Z,91849.51
2018-08-25T21:49:35.193Z,91848.69
2018-08-25T21:52:10.954Z,91855.86
2018-08-25T21:54:46.916Z,91854.66
2018-08-25T21:57:22.642Z,91855.53
2018-08-25T21:59:58.577Z,91853.70
2018-08-25T22:02:34.422Z,91850.16
2018-08-25T22:05:10.198Z,91858.63
2018-08-25T22:07:46.025Z,91846.53
2018-08-25T22:10:21.850Z,91844.98
2018-08-25T22:12:57.743Z,91856.83
2018-08-25T22:15:33.692Z,91856.67
2018-08-25T22:18:09.446Z,91859.69
2018-08-25T22:20:45.260Z,91852.16
2018-08-25T22:23:20.969Z,91856.83
2018-08-25T22:25:56.783Z,91860.25
2018-08-25T22:28:32.515Z,91855.88
2018-08-25T22:31:08.556Z,91853.00
2018-08-25T22:33:44.458Z,91847.21
2018-08-25T22:36:20.217Z,91850.81
2018-08-25T22:38:55.940Z,91849.78
2018-08-25T22:41:31.775Z,91848.60
2018-08-25T22:44:08.257Z,91854.18
2018-08-25T22:46:43.997Z,91851.10
2018-08-25T22:49:19.720Z,91846.05
2018-08-25T22:51:55.510Z,91850.63
2018-08-25T22:54:31.471Z,91857.17
2018-08-25T22:57:07.328Z,91856.50
2018-08-25T22:59:43.045Z,91847.20
2018-08-25T23:02:18.886Z,91841.38
2018-08-25T23:04:54.632Z,91842.90
2018-08-25T23:07:30.449Z,91841.05
2018-08-25T23:10:06.733Z,91837.70
2018-08-25T23:12:42.601Z,91844.63
2018-08-25T23:15:18.574Z,91837.17
2018-08-25T23:17:54.401Z,91835.83
2018-08-25T23:20:30.110Z,91829.67
2018-08-25T23:23:06.086Z,91828.48
2018-08-25T23:25:41.820Z,91829.50
2018-08-25T23:28:17.460Z,91825.50
2018-08-25T23:30:53.244Z,91825.58
2018-08-25T23:33:29.026Z,91819.19
2018-08-25T23:36:04.828Z,91821.30
2018-08-25T23:38:40.688Z,91818.95
2018-08-25T23:41:16.449Z,91811.52
2018-08-25T23:43:52.303Z,91811.91
2018-08-25T23:46:28.137Z,91809.94
2018-08-25T23:49:03.997Z,91810.61
2018-08-25T23:51:39.865Z,91808.98
2018-08-25T23:54:15.735Z,91815.23
2018-08-25T23:56:51.519Z,91809.63
2018-08-25T23:59:27.736Z,91815.30
